sensor_id;sensor_type;location;lat;lon;timestamp;pressure;altitude;pressure_sealevel;temperature;humidity
65359;BME280;52491;45.900;6.346;2023-04-03T00:00:32;93874.66;;;23.88;31.03
65359;BME280;52491;45.900;6.346;2023-04-03T00:02:58;93866.66;;;23.88;30.90
65359;BME280;52491;45.900;6.346;2023-04-03T00:05:23;93877.31;;;23.88;30.96
65359;BME280;52491;45.900;6.346;2023-04-03T00:07:49;93873.84;;;23.87;31.00
65359;BME280;52491;45.900;6.346;2023-04-03T00:10:15;93873.06;;;23.87;30.81
65359;BME280;52491;45.900;6.346;2023-04-03T00:12:41;93872.00;;;23.88;30.92
65359;BME280;52491;45.900;6.346;2023-04-03T00:15:07;93871.19;;;23.87;31.03
65359;BME280;52491;45.900;6.346;2023-04-03T00:17:32;93870.41;;;23.87;30.86
65359;BME280;52491;45.900;6.346;2023-04-03T00:19:58;93870.41;;;23.87;30.88
65359;BME280;52491;45.900;6.346;2023-04-03T00:22:24;93860.53;;;23.87;30.79
65359;BME280;52491;45.900;6.346;2023-04-03T00:24:52;93857.31;;;23.85;30.67
65359;BME280;52491;45.900;6.346;2023-04-03T00:27:17;93865.31;;;23.85;30.68
65359;BME280;52491;45.900;6.346;2023-04-03T00:29:43;93867.19;;;23.85;30.78
65359;BME280;52491;45.900;6.346;2023-04-03T00:32:09;93856.53;;;23.85;30.92
65359;BME280;52491;45.900;6.346;2023-04-03T00:34:35;93857.09;;;23.87;30.57
65359;BME280;52491;45.900;6.346;2023-04-03T00:37:01;93857.31;;;23.85;30.80
65359;BME280;52491;45.900;6.346;2023-04-03T00:39:27;93851.44;;;23.83;30.48
65359;BME280;52491;45.900;6.346;2023-04-03T00:41:52;93853.88;;;23.85;30.76
65359;BME280;52491;45.900;6.346;2023-04-03T00:47:09;93852.25;;;23.79;30.64
65359;BME280;52491;45.900;6.346;2023-04-03T00:49:37;93848.78;;;23.78;30.33
65359;BME280;52491;45.900;6.346;2023-04-03T00:52:05;93854.13;;;23.78;30.55
65359;BME280;52491;45.900;6.346;2023-04-03T00:54:32;93852.50;;;23.77;30.77
65359;BME280;52491;45.900;6.346;2023-04-03T00:57:00;93850.09;;;23.76;30.58
65359;BME280;52491;45.900;6.346;2023-04-03T00:59:30;93856.22;;;23.76;30.45
65359;BME280;52491;45.900;6.346;2023-04-03T01:01:58;93852.81;;;23.81;30.49
65359;BME280;52491;45.900;6.346;2023-04-03T01:04:38;93853.31;;;23.83;30.50
65359;BME280;52491;45.900;6.346;2023-04-03T01:07:11;93853.59;;;23.81;30.60
65359;BME280;52491;45.900;6.346;2023-04-03T01:09:38;93852.81;;;23.81;30.53
65359;BME280;52491;45.900;6.346;2023-04-03T01:12:23;93853.84;;;23.80;30.36
65359;BME280;52491;45.900;6.346;2023-04-03T01:14:58;93853.84;;;23.80;30.48
65359;BME280;52491;45.900;6.346;2023-04-03T01:17:32;93852.25;;;23.79;30.37
65359;BME280;52491;45.900;6.346;2023-04-03T01:22:30;93837.59;;;23.76;30.22
65359;BME280;52491;45.900;6.346;2023-04-03T01:25:01;93845.31;;;23.78;30.60
65359;BME280;52491;45.900;6.346;2023-04-03T01:27:26;93837.31;;;23.78;30.35
65359;BME280;52491;45.900;6.346;2023-04-03T01:29:52;93829.34;;;23.78;30.39
65359;BME280;52491;45.900;6.346;2023-04-03T01:32:18;93832.81;;;23.78;30.46
65359;BME280;52491;45.900;6.346;2023-04-03T01:34:44;93830.97;;;23.79;30.31
65359;BME280;52491;45.900;6.346;2023-04-03T01:37:09;93833.63;;;23.79;30.42
65359;BME280;52491;45.900;6.346;2023-04-03T01:39:35;93832.81;;;23.78;30.50
65359;BME280;52491;45.900;6.346;2023-04-03T01:42:01;93831.19;;;23.77;30.21
65359;BME280;52491;45.900;6.346;2023-04-03T01:44:26;93824.00;;;23.78;30.26
65359;BME280;52491;45.900;6.346;2023-04-03T01:46:52;93820.81;;;23.76;30.25
65359;BME280;52491;45.900;6.346;2023-04-03T01:49:17;93823.22;;;23.77;30.41
65359;BME280;52491;45.900;6.346;2023-04-03T01:51:43;93818.44;;;23.79;30.21
65359;BME280;52491;45.900;6.346;2023-04-03T01:54:09;93824.84;;;23.78;30.22
65359;BME280;52491;45.900;6.346;2023-04-03T01:56:34;93817.88;;;23.77;30.29
65359;BME280;52491;45.900;6.346;2023-04-03T01:59:00;93816.84;;;23.78;30.26
65359;BME280;52491;45.900;6.346;2023-04-03T02:01:25;93820.31;;;23.79;30.21
65359;BME280;52491;45.900;6.346;2023-04-03T02:03:51;93825.34;;;23.80;30.29
65359;BME280;52491;45.900;6.346;2023-04-03T02:06:17;93824.59;;;23.85;29.99
65359;BME280;52491;45.900;6.346;2023-04-03T02:08:43;93825.09;;;23.82;30.11
65359;BME280;52491;45.900;6.346;2023-04-03T02:11:08;93826.44;;;23.84;30.14
65359;BME280;52491;45.900;6.346;2023-04-03T02:13:34;93821.69;;;23.86;29.89
65359;BME280;52491;45.900;6.346;2023-04-03T02:16:07;93821.69;;;23.86;30.05
65359;BME280;52491;45.900;6.346;2023-04-03T02:18:32;93829.66;;;23.86;30.06
65359;BME280;52491;45.900;6.346;2023-04-03T02:20:58;93827.00;;;23.86;29.96
65359;BME280;52491;45.900;6.346;2023-04-03T02:23:24;93823.50;;;23.81;30.11
65359;BME280;52491;45.900;6.346;2023-04-03T02:25:49;93821.09;;;23.79;30.16
65359;BME280;52491;45.900;6.346;2023-04-03T02:28:15;93819.75;;;23.77;30.08
65359;BME280;52491;45.900;6.346;2023-04-03T02:30:40;93817.88;;;23.77;30.05
65359;BME280;52491;45.900;6.346;2023-04-03T02:33:06;93811.78;;;23.77;30.19
65359;BME280;52491;45.900;6.346;2023-04-03T02:35:31;93813.34;;;23.78;29.96
65359;BME280;52491;45.900;6.346;2023-04-03T02:37:57;93809.09;;;23.77;29.94
65359;BME280;52491;45.900;6.346;2023-04-03T02:40:22;93804.84;;;23.76;30.17
65359;BME280;52491;45.900;6.346;2023-04-03T02:42:48;93801.13;;;23.77;30.10
65359;BME280;52491;45.900;6.346;2023-04-03T02:45:13;93804.56;;;23.77;30.09
65359;BME280;52491;45.900;6.346;2023-04-03T02:47:39;93802.19;;;23.76;30.19
65359;BME280;52491;45.900;6.346;2023-04-03T02:50:05;93794.41;;;23.69;30.12
65359;BME280;52491;45.900;6.346;2023-04-03T02:52:31;93801.66;;;23.74;30.09
65359;BME280;52491;45.900;6.346;2023-04-03T02:54:57;93802.44;;;23.74;30.00
65359;BME280;52491;45.900;6.346;2023-04-03T02:57:22;93804.06;;;23.75;29.97
65359;BME280;52491;45.900;6.346;2023-04-03T02:59:48;93805.09;;;23.74;29.91
65359;BME280;52491;45.900;6.346;2023-04-03T03:02:13;93797.66;;;23.76;30.04
65359;BME280;52491;45.900;6.346;2023-04-03T03:04:39;93796.06;;;23.75;30.04
65359;BME280;52491;45.900;6.346;2023-04-03T03:07:05;93800.88;;;23.83;29.91
65359;BME280;52491;45.900;6.346;2023-04-03T03:09:30;93794.75;;;23.83;29.92
65359;BME280;52491;45.900;6.346;2023-04-03T03:11:56;93797.41;;;23.83;29.90
65359;BME280;52491;45.900;6.346;2023-04-03T03:14:23;93797.41;;;23.83;30.11
65359;BME280;52491;45.900;6.346;2023-04-03T03:16:48;93800.88;;;23.83;29.94
65359;BME280;52491;45.900;6.346;2023-04-03T03:19:14;93794.75;;;23.83;29.71
65359;BME280;52491;45.900;6.346;2023-04-03T03:21:40;93800.31;;;23.76;29.93
65359;BME280;52491;45.900;6.346;2023-04-03T03:24:06;93798.75;;;23.75;30.04
65359;BME280;52491;45.900;6.346;2023-04-03T03:26:31;93794.22;;;23.76;29.82
65359;BME280;52491;45.900;6.346;2023-04-03T03:28:57;93795.25;;;23.75;29.97
65359;BME280;52491;45.900;6.346;2023-04-03T03:31:23;93799.56;;;23.81;29.80
65359;BME280;52491;45.900;6.346;2023-04-03T03:33:48;93786.69;;;23.67;30.10
65359;BME280;52491;45.900;6.346;2023-04-03T03:36:14;93792.22;;;23.61;30.21
65359;BME280;52491;45.900;6.346;2023-04-03T03:38:39;93792.34;;;23.76;30.00
65359;BME280;52491;45.900;6.346;2023-04-03T03:41:05;93792.88;;;23.78;29.96
65359;BME280;52491;45.900;6.346;2023-04-03T03:43:31;93789.16;;;23.79;29.95
65359;BME280;52491;45.900;6.346;2023-04-03T03:45:56;93787.28;;;23.80;29.95
65359;BME280;52491;45.900;6.346;2023-04-03T03:48:22;93793.41;;;23.80;29.95
65359;BME280;52491;45.900;6.346;2023-04-03T03:50:49;93786.25;;;23.81;29.79
65359;BME280;52491;45.900;6.346;2023-04-03T03:53:14;93789.72;;;23.81;29.80
65359;BME280;52491;45.900;6.346;2023-04-03T03:55:41;93792.63;;;23.80;29.91
65359;BME280;52491;45.900;6.346;2023-04-03T03:58:06;93782.75;;;23.80;30.04
65359;BME280;52491;45.900;6.346;2023-04-03T04:00:32;93790.75;;;23.80;29.92
65359;BME280;52491;45.900;6.346;2023-04-03T04:02:57;93784.63;;;23.80;29.93
65359;BME280;52491;45.900;6.346;2023-04-03T04:05:23;93795.56;;;23.78;29.90
65359;BME280;52491;45.900;6.346;2023-04-03T04:07:49;93778.50;;;23.79;29.64
65359;BME280;52491;45.900;6.346;2023-04-03T04:10:14;93783.84;;;23.79;29.91
65359;BME280;52491;45.900;6.346;2023-04-03T04:12:40;93785.69;;;23.79;29.71
65359;BME280;52491;45.900;6.346;2023-04-03T04:15:06;93781.16;;;23.79;29.76
65359;BME280;52491;45.900;6.346;2023-04-03T04:17:32;93787.56;;;23.78;30.15
65359;BME280;52491;45.900;6.346;2023-04-03T04:19:57;93781.97;;;23.80;29.81
65359;BME280;52491;45.900;6.346;2023-04-03T04:22:23;93782.75;;;23.80;29.84
65359;BME280;52491;45.900;6.346;2023-04-03T04:24:48;93781.72;;;23.81;29.90
65359;BME280;52491;45.900;6.346;2023-04-03T04:27:14;93780.91;;;23.81;29.81
65359;BME280;52491;45.900;6.346;2023-04-03T04:29:41;93778.25;;;23.81;29.79
65359;BME280;52491;45.900;6.346;2023-04-03T04:32:06;93780.09;;;23.80;29.85
65359;BME280;52491;45.900;6.346;2023-04-03T04:34:34;93779.31;;;23.80;29.68
65359;BME280;52491;45.900;6.346;2023-04-03T04:37:00;93779.06;;;23.81;29.62
65359;BME280;52491;45.900;6.346;2023-04-03T04:39:25;93777.97;;;23.82;29.85
65359;BME280;52491;45.900;6.346;2023-04-03T04:41:51;93775.59;;;23.81;29.74
65359;BME280;52491;45.900;6.346;2023-04-03T04:44:17;93775.59;;;23.81;29.86
65359;BME280;52491;45.900;6.346;2023-04-03T04:46:42;93779.84;;;23.82;29.81
65359;BME280;52491;45.900;6.346;2023-04-03T04:49:08;93778.25;;;23.81;29.89
65359;BME280;52491;45.900;6.346;2023-04-03T04:51:33;93776.13;;;23.83;29.84
65359;BME280;52491;45.900;6.346;2023-04-03T04:53:59;93781.44;;;23.83;29.92
65359;BME280;52491;45.900;6.346;2023-04-03T04:56:25;93781.44;;;23.83;29.99
65359;BME280;52491;45.900;6.346;2023-04-03T04:58:51;93785.19;;;23.82;30.19
65359;BME280;52491;45.900;6.346;2023-04-03T05:01:17;93786.75;;;23.83;30.16
65359;BME280;52491;45.900;6.346;2023-04-03T05:03:43;93784.06;;;23.78;30.15
65359;BME280;52491;45.900;6.346;2023-04-03T05:06:09;93789.69;;;23.76;30.32
65359;BME280;52491;45.900;6.346;2023-04-03T05:08:35;93794.72;;;23.73;30.54
65359;BME280;52491;45.900;6.346;2023-04-03T05:11:01;93791.28;;;23.77;30.15
65359;BME280;52491;45.900;6.346;2023-04-03T05:13:27;93789.19;;;23.84;30.38
65359;BME280;52491;45.900;6.346;2023-04-03T05:15:52;93788.63;;;23.82;30.23
65359;BME280;52491;45.900;6.346;2023-04-03T05:18:18;93792.09;;;23.83;30.29
65359;BME280;52491;45.900;6.346;2023-04-03T05:20:44;93795.53;;;23.83;30.30
65359;BME280;52491;45.900;6.346;2023-04-03T05:23:11;93797.16;;;23.84;30.63
65359;BME280;52491;45.900;6.346;2023-04-03T05:25:38;93800.88;;;23.83;30.82
65359;BME280;52491;45.900;6.346;2023-04-03T05:28:05;93791.84;;;23.84;30.78
65359;BME280;52491;45.900;6.346;2023-04-03T05:30:33;93796.63;;;23.87;30.90
65359;BME280;52491;45.900;6.346;2023-04-03T05:33:00;93794.53;;;23.89;30.94
65359;BME280;52491;45.900;6.346;2023-04-03T05:35:26;93791.06;;;23.89;31.12
65359;BME280;52491;45.900;6.346;2023-04-03T05:37:51;93794.25;;;23.91;30.72
65359;BME280;52491;45.900;6.346;2023-04-03T05:40:17;93787.97;;;24.23;30.32
65359;BME280;52491;45.900;6.346;2023-04-03T05:42:43;93785.28;;;24.28;30.28
65359;BME280;52491;45.900;6.346;2023-04-03T05:45:09;93784.25;;;24.29;30.59
65359;BME280;52491;45.900;6.346;2023-04-03T05:47:35;93780.78;;;24.28;30.70
65359;BME280;52491;45.900;6.346;2023-04-03T05:50:01;93785.28;;;24.28;30.32
65359;BME280;52491;45.900;6.346;2023-04-03T05:52:37;93788.50;;;24.30;30.26
65359;BME280;52491;45.900;6.346;2023-04-03T05:55:04;93784.75;;;24.31;30.16
65359;BME280;52491;45.900;6.346;2023-04-03T05:57:30;93793.56;;;24.31;30.13
65359;BME280;52491;45.900;6.346;2023-04-03T05:59:57;93789.84;;;24.32;30.48
65359;BME280;52491;45.900;6.346;2023-04-03T06:02:24;93781.84;;;24.32;30.33
65359;BME280;52491;45.900;6.346;2023-04-03T06:04:51;93787.72;;;24.34;30.19
65359;BME280;52491;45.900;6.346;2023-04-03T06:07:19;93779.19;;;24.32;30.24
65359;BME280;52491;45.900;6.346;2023-04-03T06:09:48;93774.09;;;24.31;30.49
65359;BME280;52491;45.900;6.346;2023-04-03T06:12:14;93782.09;;;24.31;30.47
65359;BME280;52491;45.900;6.346;2023-04-03T06:14:40;93783.72;;;24.32;30.49
65359;BME280;52491;45.900;6.346;2023-04-03T06:17:06;93785.03;;;24.24;30.62
65359;BME280;52491;45.900;6.346;2023-04-03T06:19:34;93786.09;;;24.28;30.34
65359;BME280;52491;45.900;6.346;2023-04-03T06:21:59;93782.38;;;24.29;30.38
65359;BME280;52491;45.900;6.346;2023-04-03T06:24:25;93785.03;;;24.29;30.33
65359;BME280;52491;45.900;6.346;2023-04-03T06:26:52;93783.16;;;24.30;30.59
65359;BME280;52491;45.900;6.346;2023-04-03T06:29:19;93781.56;;;24.29;30.64
65359;BME280;52491;45.900;6.346;2023-04-03T06:31:45;93786.09;;;24.28;30.37
65359;BME280;52491;45.900;6.346;2023-04-03T06:34:10;93785.03;;;24.24;30.35
65359;BME280;52491;45.900;6.346;2023-04-03T06:36:37;93781.00;;;24.22;30.56
65359;BME280;52491;45.900;6.346;2023-04-03T06:39:04;93784.47;;;24.22;30.52
65359;BME280;52491;45.900;6.346;2023-04-03T06:41:30;93776.47;;;24.22;30.50
65359;BME280;52491;45.900;6.346;2023-04-03T06:43:56;93783.69;;;24.22;30.56
65359;BME280;52491;45.900;6.346;2023-04-03T06:46:23;93785.56;;;24.21;30.51
65359;BME280;52491;45.900;6.346;2023-04-03T06:48:49;93787.13;;;24.22;30.68
65359;BME280;52491;45.900;6.346;2023-04-03T06:51:27;93780.22;;;24.21;30.42
65359;BME280;52491;45.900;6.346;2023-04-03T06:53:54;93785.56;;;24.21;30.61
65359;BME280;52491;45.900;6.346;2023-04-03T06:56:21;93780.22;;;24.21;30.53
65359;BME280;52491;45.900;6.346;2023-04-03T06:58:47;93783.69;;;24.22;30.79
65359;BME280;52491;45.900;6.346;2023-04-03T07:01:15;93778.34;;;24.22;30.44
65359;BME280;52491;45.900;6.346;2023-04-03T07:03:41;93776.75;;;24.21;30.66
65359;BME280;52491;45.900;6.346;2023-04-03T07:06:11;93772.22;;;24.21;30.56
65359;BME280;52491;45.900;6.346;2023-04-03T07:08:37;93774.91;;;24.21;30.39
65359;BME280;52491;45.900;6.346;2023-04-03T07:11:04;93767.97;;;24.20;30.48
65359;BME280;52491;45.900;6.346;2023-04-03T07:13:30;93770.63;;;24.20;30.67
65359;BME280;52491;45.900;6.346;2023-04-03T07:15:56;93767.16;;;24.20;30.57
65359;BME280;52491;45.900;6.346;2023-04-03T07:18:23;93775.16;;;24.20;30.50
65359;BME280;52491;45.900;6.346;2023-04-03T07:20:48;93773.31;;;24.20;30.58
65359;BME280;52491;45.900;6.346;2023-04-03T07:23:14;93773.31;;;24.20;30.50
65359;BME280;52491;45.900;6.346;2023-04-03T07:25:47;93774.91;;;24.21;30.69
65359;BME280;52491;45.900;6.346;2023-04-03T07:28:13;93776.47;;;24.07;30.80
65359;BME280;52491;45.900;6.346;2023-04-03T07:30:46;93774.84;;;24.01;30.65
65359;BME280;52491;45.900;6.346;2023-04-03T07:33:13;93781.50;;;23.98;30.90
65359;BME280;52491;45.900;6.346;2023-04-03T07:35:40;93771.91;;;23.97;30.77
65359;BME280;52491;45.900;6.346;2023-04-03T07:38:06;93781.75;;;23.97;31.03
65359;BME280;52491;45.900;6.346;2023-04-03T07:40:32;93776.91;;;23.83;31.07
65359;BME280;52491;45.900;6.346;2023-04-03T07:42:58;93774.22;;;23.73;31.25
65359;BME280;52491;45.900;6.346;2023-04-03T07:45:24;93772.63;;;23.77;31.12
65359;BME280;52491;45.900;6.346;2023-04-03T07:47:50;93778.50;;;23.79;30.92
65359;BME280;52491;45.900;6.346;2023-04-03T07:50:16;93767.38;;;24.03;30.89
65359;BME280;52491;45.900;6.346;2023-04-03T07:52:41;93773.47;;;23.88;31.16
65359;BME280;52491;45.900;6.346;2023-04-03T07:55:07;93779.56;;;23.83;31.12
65359;BME280;52491;45.900;6.346;2023-04-03T07:57:33;93776.28;;;23.66;31.20
65359;BME280;52491;45.900;6.346;2023-04-03T07:59:59;93777.97;;;23.77;31.06
65359;BME280;52491;45.900;6.346;2023-04-03T08:02:24;93768.69;;;23.85;30.89
65359;BME280;52491;45.900;6.346;2023-04-03T08:04:50;93772.38;;;23.79;31.13
65359;BME280;52491;45.900;6.346;2023-04-03T08:07:16;93771.59;;;23.88;30.85
65359;BME280;52491;45.900;6.346;2023-04-03T08:09:41;93775.38;;;23.93;30.70
65359;BME280;52491;45.900;6.346;2023-04-03T08:12:07;93764.72;;;23.93;31.09
65359;BME280;52491;45.900;6.346;2023-04-03T08:14:33;93767.38;;;23.93;30.64
65359;BME280;52491;45.900;6.346;2023-04-03T08:17:00;93762.06;;;23.93;30.70
65359;BME280;52491;45.900;6.346;2023-04-03T08:19:26;93768.16;;;23.93;30.96
65359;BME280;52491;45.900;6.346;2023-04-03T08:21:55;93767.38;;;23.93;30.79
65359;BME280;52491;45.900;6.346;2023-04-03T08:24:24;93767.38;;;23.93;30.84
65359;BME280;52491;45.900;6.346;2023-04-03T08:26:49;93767.38;;;23.93;30.96
65359;BME280;52491;45.900;6.346;2023-04-03T08:29:15;93755.94;;;23.92;30.94
65359;BME280;52491;45.900;6.346;2023-04-03T08:31:41;93762.06;;;23.93;30.94
65359;BME280;52491;45.900;6.346;2023-04-03T08:34:06;93762.84;;;23.93;30.99
65359;BME280;52491;45.900;6.346;2023-04-03T08:36:34;93764.72;;;23.93;30.78
65359;BME280;52491;45.900;6.346;2023-04-03T08:39:00;93758.88;;;23.96;30.82
65359;BME280;52491;45.900;6.346;2023-04-03T08:41:34;93759.38;;;23.93;30.93
65359;BME280;52491;45.900;6.346;2023-04-03T08:46:47;93757.78;;;23.92;31.01
65359;BME280;52491;45.900;6.346;2023-04-03T08:49:48;93761.50;;;23.90;31.18
65359;BME280;52491;45.900;6.346;2023-04-03T08:52:54;93767.34;;;23.87;31.14
65359;BME280;52491;45.900;6.346;2023-04-03T08:55:32;93762.00;;;23.82;31.19
65359;BME280;52491;45.900;6.346;2023-04-03T08:58:03;93759.38;;;23.87;31.08
65359;BME280;52491;45.900;6.346;2023-04-03T09:03:18;93758.56;;;23.87;31.12
65359;BME280;52491;45.900;6.346;2023-04-03T09:05:55;93755.63;;;23.88;31.09
65359;BME280;52491;45.900;6.346;2023-04-03T09:08:26;93750.31;;;23.88;31.08
65359;BME280;52491;45.900;6.346;2023-04-03T09:11:12;93749.25;;;23.89;30.95
65359;BME280;52491;45.900;6.346;2023-04-03T09:14:01;93747.13;;;23.92;31.07
65359;BME280;52491;45.900;6.346;2023-04-03T09:22:00;93758.06;;;23.90;31.13
65359;BME280;52491;45.900;6.346;2023-04-03T09:24:28;93754.59;;;23.89;31.27
65359;BME280;52491;45.900;6.346;2023-04-03T09:29:22;93744.47;;;23.92;31.10
65359;BME280;52491;45.900;6.346;2023-04-03T09:31:50;93750.59;;;23.92;31.20
65359;BME280;52491;45.900;6.346;2023-04-03T09:34:20;93746.06;;;23.93;31.37
65359;BME280;52491;45.900;6.346;2023-04-03T09:36:50;93745.28;;;23.92;31.11
65359;BME280;52491;45.900;6.346;2023-04-03T09:39:26;93741.78;;;23.92;31.62
65359;BME280;52491;45.900;6.346;2023-04-03T09:42:27;93740.75;;;23.93;31.28
65359;BME280;52491;45.900;6.346;2023-04-03T09:44:58;93746.88;;;23.93;31.46
65359;BME280;52491;45.900;6.346;2023-04-03T09:47:33;93734.91;;;23.96;31.15
65359;BME280;52491;45.900;6.346;2023-04-03T09:52:41;93731.16;;;23.97;31.48
65359;BME280;52491;45.900;6.346;2023-04-03T09:55:19;93734.13;;;24.00;31.40
65359;BME280;52491;45.900;6.346;2023-04-03T09:57:48;93717.31;;;24.00;31.41
65359;BME280;52491;45.900;6.346;2023-04-03T10:00:31;93717.06;;;24.01;31.40
65359;BME280;52491;45.900;6.346;2023-04-03T10:02:58;93713.63;;;24.01;31.40
65359;BME280;52491;45.900;6.346;2023-04-03T10:05:40;93715.19;;;24.02;31.26
65359;BME280;52491;45.900;6.346;2023-04-03T10:10:41;93703.75;;;24.06;31.17
65359;BME280;52491;45.900;6.346;2023-04-03T10:13:15;93704.56;;;24.07;31.06
65359;BME280;52491;45.900;6.346;2023-04-03T10:16:07;93702.16;;;24.05;31.19
65359;BME280;52491;45.900;6.346;2023-04-03T10:21:20;93692.84;;;24.08;31.13
65359;BME280;52491;45.900;6.346;2023-04-03T10:23:53;93689.38;;;24.07;31.46
65359;BME280;52491;45.900;6.346;2023-04-03T10:29:40;93693.91;;;24.07;31.41
65359;BME280;52491;45.900;6.346;2023-04-03T10:34:45;93688.59;;;24.07;30.21
65359;BME280;52491;45.900;6.346;2023-04-03T10:37:26;93676.84;;;24.03;30.50
65359;BME280;52491;45.900;6.346;2023-04-03T10:51:15;93677.91;;;23.97;31.20
65359;BME280;52491;45.900;6.346;2023-04-03T10:54:08;93668.34;;;24.01;31.07
65359;BME280;52491;45.900;6.346;2023-04-03T10:56:44;93667.81;;;24.04;31.17
65359;BME280;52491;45.900;6.346;2023-04-03T10:59:21;93664.06;;;24.05;31.06
65359;BME280;52491;45.900;6.346;2023-04-03T11:01:59;93651.28;;;24.07;30.95
65359;BME280;52491;45.900;6.346;2023-04-03T11:04:29;93652.09;;;24.07;30.83
65359;BME280;52491;45.900;6.346;2023-04-03T11:07:10;93657.41;;;24.07;30.93
65359;BME280;52491;45.900;6.346;2023-04-03T11:09:40;93656.63;;;24.07;30.96
65359;BME280;52491;45.900;6.346;2023-04-03T11:12:17;93654.22;;;23.95;30.84
65359;BME280;52491;45.900;6.346;2023-04-03T11:14:47;93653.69;;;23.98;30.31
65359;BME280;52491;45.900;6.346;2023-04-03T11:22:59;93645.97;;;23.86;29.98
65359;BME280;52491;45.900;6.346;2023-04-03T11:25:29;93644.88;;;23.77;29.96
65359;BME280;52491;45.900;6.346;2023-04-03T11:28:02;93643.53;;;23.75;29.89
65359;BME280;52491;45.900;6.346;2023-04-03T11:39:28;93626.19;;;23.57;29.36
65359;BME280;52491;45.900;6.346;2023-04-03T11:42:33;93623.00;;;23.65;29.24
65359;BME280;52491;45.900;6.346;2023-04-03T11:47:52;93626.50;;;23.71;29.03
65359;BME280;52491;45.900;6.346;2023-04-03T12:11:31;93596.41;;;23.80;27.98
65359;BME280;52491;45.900;6.346;2023-04-03T12:16:49;93588.66;;;23.68;28.58
65359;BME280;52491;45.900;6.346;2023-04-03T12:24:30;93585.78;;;23.80;27.90
65359;BME280;52491;45.900;6.346;2023-04-03T12:32:26;93588.97;;;23.87;27.91
65359;BME280;52491;45.900;6.346;2023-04-03T12:35:20;93589.78;;;23.88;27.76
65359;BME280;52491;45.900;6.346;2023-04-03T12:40:31;93580.19;;;23.87;27.31
65359;BME280;52491;45.900;6.346;2023-04-03T12:43:22;93581.78;;;23.88;27.49
65359;BME280;52491;45.900;6.346;2023-04-03T12:46:04;93574.34;;;23.85;27.38
65359;BME280;52491;45.900;6.346;2023-04-03T12:51:18;93569.25;;;23.83;27.09
65359;BME280;52491;45.900;6.346;2023-04-03T12:53:45;93566.59;;;23.83;27.08
65359;BME280;52491;45.900;6.346;2023-04-03T12:56:27;93554.91;;;23.84;26.87
65359;BME280;52491;45.900;6.346;2023-04-03T12:58:56;93556.78;;;23.84;26.96
65359;BME280;52491;45.900;6.346;2023-04-03T13:01:37;93550.63;;;23.83;27.00
65359;BME280;52491;45.900;6.346;2023-04-03T13:04:03;93555.94;;;23.83;26.60
65359;BME280;52491;45.900;6.346;2023-04-03T13:06:43;93545.06;;;23.85;26.54
65359;BME280;52491;45.900;6.346;2023-04-03T13:09:26;93552.25;;;23.84;26.69
65359;BME280;52491;45.900;6.346;2023-04-03T13:12:15;93548.78;;;23.79;26.71
65359;BME280;52491;45.900;6.346;2023-04-03T13:14:52;93547.44;;;23.76;26.73
65359;BME280;52491;45.900;6.346;2023-04-03T13:17:18;93543.47;;;23.74;27.04
65359;BME280;52491;45.900;6.346;2023-04-03T13:19:45;93535.22;;;23.75;26.77
65359;BME280;52491;45.900;6.346;2023-04-03T13:22:33;93532.28;;;23.77;26.67
65359;BME280;52491;45.900;6.346;2023-04-03T13:25:07;93524.81;;;23.74;26.48
65359;BME280;52491;45.900;6.346;2023-04-03T13:27:34;93523.25;;;23.73;26.58
65359;BME280;52491;45.900;6.346;2023-04-03T13:30:02;93522.13;;;23.68;26.59
65359;BME280;52491;45.900;6.346;2023-04-03T13:32:30;93524.53;;;23.70;26.50
65359;BME280;52491;45.900;6.346;2023-04-03T13:34:55;93524.53;;;23.70;26.61
65359;BME280;52491;45.900;6.346;2023-04-03T13:37:28;93524.00;;;23.68;26.39
65359;BME280;52491;45.900;6.346;2023-04-03T13:42:35;93526.41;;;23.64;26.31
65359;BME280;52491;45.900;6.346;2023-04-03T13:47:44;93537.06;;;23.90;25.88
65359;BME280;52491;45.900;6.346;2023-04-03T13:50:21;93525.88;;;23.93;25.85
65359;BME280;52491;45.900;6.346;2023-04-03T13:53:00;93524.56;;;23.96;25.79
65359;BME280;52491;45.900;6.346;2023-04-03T13:55:30;93519.75;;;23.98;25.71
65359;BME280;52491;45.900;6.346;2023-04-03T13:58:20;93523.22;;;23.98;25.58
65359;BME280;52491;45.900;6.346;2023-04-03T14:04:18;93509.91;;;23.67;25.94
65359;BME280;52491;45.900;6.346;2023-04-03T14:06:17;93513.09;;;23.90;25.80
65359;BME280;52491;45.900;6.346;2023-04-03T14:08:45;93508.84;;;23.94;25.88
65359;BME280;52491;45.900;6.346;2023-04-03T14:11:19;93508.56;;;23.80;25.54
65359;BME280;52491;45.900;6.346;2023-04-03T14:13:47;93512.81;;;23.66;25.68
65359;BME280;52491;45.900;6.346;2023-04-03T14:16:19;93510.69;;;23.88;25.53
65359;BME280;52491;45.900;6.346;2023-04-03T14:18:47;93503.25;;;23.70;25.88
65359;BME280;52491;45.900;6.346;2023-04-03T14:21:15;93500.84;;;23.63;26.00
65359;BME280;52491;45.900;6.346;2023-04-03T14:23:41;93506.44;;;23.62;25.71
65359;BME280;52491;45.900;6.346;2023-04-03T14:26:24;93504.81;;;23.61;25.76
65359;BME280;52491;45.900;6.346;2023-04-03T14:28:54;93501.66;;;23.59;25.60
65359;BME280;52491;45.900;6.346;2023-04-03T14:31:23;93503.53;;;23.58;25.78
65359;BME280;52491;45.900;6.346;2023-04-03T14:33:49;93506.19;;;23.58;25.60
65359;BME280;52491;45.900;6.346;2023-04-03T14:36:21;93503.78;;;23.57;25.57
65359;BME280;52491;45.900;6.346;2023-04-03T14:38:48;93499.53;;;23.56;25.55
65359;BME280;52491;45.900;6.346;2023-04-03T14:41:16;93493.66;;;23.54;25.71
65359;BME280;52491;45.900;6.346;2023-04-03T14:43:43;93488.34;;;23.54;25.54
65359;BME280;52491;45.900;6.346;2023-04-03T14:46:16;93485.94;;;23.52;25.73
65359;BME280;52491;45.900;6.346;2023-04-03T14:48:42;93488.59;;;23.52;25.54
65359;BME280;52491;45.900;6.346;2023-04-03T14:51:11;93486.75;;;23.53;25.61
65359;BME280;52491;45.900;6.346;2023-04-03T14:53:38;93477.16;;;23.52;25.55
65359;BME280;52491;45.900;6.346;2023-04-03T14:56:45;93479.28;;;23.50;25.34
65359;BME280;52491;45.900;6.346;2023-04-03T14:59:05;93488.63;;;23.47;25.36